sensor_id;sensor_type;location;lat;lon;timestamp;temperature;humidity
59505;DHT22;45321;53.200;5.814;2023-03-25T00:00:57;10.10;82.00
59505;DHT22;45321;53.200;5.814;2023-03-25T00:03:31;10.10;81.90
59505;DHT22;45321;53.200;5.814;2023-03-25T00:06:00;10.10;82.00
59505;DHT22;45321;53.200;5.814;2023-03-25T00:08:26;10.10;82.00
59505;DHT22;45321;53.200;5.814;2023-03-25T00:10:53;10.10;82.10
59505;DHT22;45321;53.200;5.814;2023-03-25T00:13:20;10.10;82.00
59505;DHT22;45321;53.200;5.814;2023-03-25T00:15:50;10.10;82.00
59505;DHT22;45321;53.200;5.814;2023-03-25T00:18:19;10.10;82.20
59505;DHT22;45321;53.200;5.814;2023-03-25T00:20:48;10.10;82.50
59505;DHT22;45321;53.200;5.814;2023-03-25T00:23:16;10.10;83.40
59505;DHT22;45321;53.200;5.814;2023-03-25T00:25:42;10.00;84.10
59505;DHT22;45321;53.200;5.814;2023-03-25T00:28:10;9.90;84.50
59505;DHT22;45321;53.200;5.814;2023-03-25T00:30:40;9.80;84.70
59505;DHT22;45321;53.200;5.814;2023-03-25T00:33:06;9.80;85.00
59505;DHT22;45321;53.200;5.814;2023-03-25T00:35:36;9.80;85.10
59505;DHT22;45321;53.200;5.814;2023-03-25T00:38:04;9.80;85.50
59505;DHT22;45321;53.200;5.814;2023-03-25T00:40:32;9.80;86.00
59505;DHT22;45321;53.200;5.814;2023-03-25T00:43:02;9.70;86.20
59505;DHT22;45321;53.200;5.814;2023-03-25T00:45:28;9.60;86.60
59505;DHT22;45321;53.200;5.814;2023-03-25T00:47:55;9.50;86.90
59505;DHT22;45321;53.200;5.814;2023-03-25T00:50:21;9.50;87.00
59505;DHT22;45321;53.200;5.814;2023-03-25T00:52:47;9.50;87.30
59505;DHT22;45321;53.200;5.814;2023-03-25T00:55:14;9.50;87.20
59505;DHT22;45321;53.200;5.814;2023-03-25T00:57:39;9.40;87.40
59505;DHT22;45321;53.200;5.814;2023-03-25T01:00:11;9.40;87.30
59505;DHT22;45321;53.200;5.814;2023-03-25T01:02:38;9.40;87.20
59505;DHT22;45321;53.200;5.814;2023-03-25T01:05:04;9.40;87.30
59505;DHT22;45321;53.200;5.814;2023-03-25T01:07:30;9.40;87.40
59505;DHT22;45321;53.200;5.814;2023-03-25T01:09:57;9.40;87.30
59505;DHT22;45321;53.200;5.814;2023-03-25T01:12:23;9.40;87.20
59505;DHT22;45321;53.200;5.814;2023-03-25T01:14:50;9.40;87.40
59505;DHT22;45321;53.200;5.814;2023-03-25T01:17:16;9.40;87.30
59505;DHT22;45321;53.200;5.814;2023-03-25T01:19:41;9.40;87.10
59505;DHT22;45321;53.200;5.814;2023-03-25T01:22:07;9.40;87.10
59505;DHT22;45321;53.200;5.814;2023-03-25T01:24:33;9.40;87.00
59505;DHT22;45321;53.200;5.814;2023-03-25T01:26:59;9.40;86.90
59505;DHT22;45321;53.200;5.814;2023-03-25T01:29:24;9.50;86.90
59505;DHT22;45321;53.200;5.814;2023-03-25T01:31:50;9.40;86.80
59505;DHT22;45321;53.200;5.814;2023-03-25T01:34:18;9.40;87.00
59505;DHT22;45321;53.200;5.814;2023-03-25T01:36:44;9.40;86.90
59505;DHT22;45321;53.200;5.814;2023-03-25T01:39:16;9.40;86.90
59505;DHT22;45321;53.200;5.814;2023-03-25T01:41:45;9.40;86.90
59505;DHT22;45321;53.200;5.814;2023-03-25T01:46:47;9.40;86.70
59505;DHT22;45321;53.200;5.814;2023-03-25T01:49:26;9.40;86.60
59505;DHT22;45321;53.200;5.814;2023-03-25T01:52:00;9.40;86.60
59505;DHT22;45321;53.200;5.814;2023-03-25T01:54:27;9.40;86.60
59505;DHT22;45321;53.200;5.814;2023-03-25T01:56:53;9.40;86.50
59505;DHT22;45321;53.200;5.814;2023-03-25T01:59:23;9.40;86.40
59505;DHT22;45321;53.200;5.814;2023-03-25T02:01:51;9.40;86.20
59505;DHT22;45321;53.200;5.814;2023-03-25T02:04:26;9.40;86.20
59505;DHT22;45321;53.200;5.814;2023-03-25T02:06:59;9.40;86.20
59505;DHT22;45321;53.200;5.814;2023-03-25T02:09:25;9.40;86.00
59505;DHT22;45321;53.200;5.814;2023-03-25T02:11:51;9.40;86.10
59505;DHT22;45321;53.200;5.814;2023-03-25T02:14:26;9.40;86.00
59505;DHT22;45321;53.200;5.814;2023-03-25T02:22:47;9.40;85.70
59505;DHT22;45321;53.200;5.814;2023-03-25T02:28:02;9.40;85.80
59505;DHT22;45321;53.200;5.814;2023-03-25T02:38:51;9.30;85.60
59505;DHT22;45321;53.200;5.814;2023-03-25T02:41:23;9.30;85.50
59505;DHT22;45321;53.200;5.814;2023-03-25T02:44:35;9.30;85.30
59505;DHT22;45321;53.200;5.814;2023-03-25T02:47:10;9.30;85.30
59505;DHT22;45321;53.200;5.814;2023-03-25T02:49:41;9.30;85.20
59505;DHT22;45321;53.200;5.814;2023-03-25T02:54:44;9.40;85.20
59505;DHT22;45321;53.200;5.814;2023-03-25T02:57:15;9.30;85.10
59505;DHT22;45321;53.200;5.814;2023-03-25T02:59:44;9.30;85.10
59505;DHT22;45321;53.200;5.814;2023-03-25T03:02:11;9.40;85.10
59505;DHT22;45321;53.200;5.814;2023-03-25T03:04:51;9.40;85.00
59505;DHT22;45321;53.200;5.814;2023-03-25T03:07:25;9.40;85.20
59505;DHT22;45321;53.200;5.814;2023-03-25T03:10:16;9.30;85.20
59505;DHT22;45321;53.200;5.814;2023-03-25T03:15:52;9.40;85.00
59505;DHT22;45321;53.200;5.814;2023-03-25T03:21:17;9.40;84.80
59505;DHT22;45321;53.200;5.814;2023-03-25T03:26:52;9.50;84.80
59505;DHT22;45321;53.200;5.814;2023-03-25T03:29:30;9.50;84.80
59505;DHT22;45321;53.200;5.814;2023-03-25T03:34:44;9.50;84.70
59505;DHT22;45321;53.200;5.814;2023-03-25T03:37:15;9.50;84.80
59505;DHT22;45321;53.200;5.814;2023-03-25T03:39:45;9.40;84.70
59505;DHT22;45321;53.200;5.814;2023-03-25T03:42:27;9.40;84.80
59505;DHT22;45321;53.200;5.814;2023-03-25T03:45:07;9.50;84.80
59505;DHT22;45321;53.200;5.814;2023-03-25T03:47:40;9.50;84.70
59505;DHT22;45321;53.200;5.814;2023-03-25T03:50:14;9.50;84.70
59505;DHT22;45321;53.200;5.814;2023-03-25T03:55:29;9.50;84.70
59505;DHT22;45321;53.200;5.814;2023-03-25T03:58:02;9.50;84.60
59505;DHT22;45321;53.200;5.814;2023-03-25T04:00:47;9.50;84.60
59505;DHT22;45321;53.200;5.814;2023-03-25T04:03:21;9.50;84.70
59505;DHT22;45321;53.200;5.814;2023-03-25T04:05:59;9.50;84.60
59505;DHT22;45321;53.200;5.814;2023-03-25T04:08:33;9.50;84.50
59505;DHT22;45321;53.200;5.814;2023-03-25T04:11:04;9.50;84.50
59505;DHT22;45321;53.200;5.814;2023-03-25T04:13:41;9.50;84.50
59505;DHT22;45321;53.200;5.814;2023-03-25T04:16:08;9.50;84.40
59505;DHT22;45321;53.200;5.814;2023-03-25T04:18:34;9.50;84.40
59505;DHT22;45321;53.200;5.814;2023-03-25T04:21:00;9.50;84.50
59505;DHT22;45321;53.200;5.814;2023-03-25T04:23:27;9.50;84.50
59505;DHT22;45321;53.200;5.814;2023-03-25T04:25:55;9.50;84.60
59505;DHT22;45321;53.200;5.814;2023-03-25T04:28:22;9.50;84.60
59505;DHT22;45321;53.200;5.814;2023-03-25T04:30:48;9.50;84.60
59505;DHT22;45321;53.200;5.814;2023-03-25T04:33:23;9.50;84.50
59505;DHT22;45321;53.200;5.814;2023-03-25T04:35:50;9.40;84.50
59505;DHT22;45321;53.200;5.814;2023-03-25T04:38:19;9.50;84.60
59505;DHT22;45321;53.200;5.814;2023-03-25T04:40:46;9.40;84.40
59505;DHT22;45321;53.200;5.814;2023-03-25T04:43:15;9.50;84.40
59505;DHT22;45321;53.200;5.814;2023-03-25T04:45:42;9.40;84.40
59505;DHT22;45321;53.200;5.814;2023-03-25T04:48:30;9.40;84.40
59505;DHT22;45321;53.200;5.814;2023-03-25T04:50:58;9.40;84.30
59505;DHT22;45321;53.200;5.814;2023-03-25T04:53:25;9.30;84.20
59505;DHT22;45321;53.200;5.814;2023-03-25T04:55:52;9.30;84.20
59505;DHT22;45321;53.200;5.814;2023-03-25T04:58:18;9.30;84.30
59505;DHT22;45321;53.200;5.814;2023-03-25T05:00:47;9.30;84.40
59505;DHT22;45321;53.200;5.814;2023-03-25T05:03:15;9.30;84.40
59505;DHT22;45321;53.200;5.814;2023-03-25T05:05:41;9.30;84.40
59505;DHT22;45321;53.200;5.814;2023-03-25T05:08:06;9.30;84.50
59505;DHT22;45321;53.200;5.814;2023-03-25T05:10:33;9.20;84.50
59505;DHT22;45321;53.200;5.814;2023-03-25T05:13:06;9.30;84.40
59505;DHT22;45321;53.200;5.814;2023-03-25T05:15:33;9.30;84.40
59505;DHT22;45321;53.200;5.814;2023-03-25T05:18:13;9.20;84.40
59505;DHT22;45321;53.200;5.814;2023-03-25T05:20:44;9.20;84.30
59505;DHT22;45321;53.200;5.814;2023-03-25T05:23:12;9.20;84.30
59505;DHT22;45321;53.200;5.814;2023-03-25T05:25:49;9.20;84.20
59505;DHT22;45321;53.200;5.814;2023-03-25T05:28:16;9.20;84.10
59505;DHT22;45321;53.200;5.814;2023-03-25T05:30:44;9.30;84.10
59505;DHT22;45321;53.200;5.814;2023-03-25T05:33:12;9.30;84.10
59505;DHT22;45321;53.200;5.814;2023-03-25T05:35:40;9.30;84.10
59505;DHT22;45321;53.200;5.814;2023-03-25T05:38:06;9.30;84.10
59505;DHT22;45321;53.200;5.814;2023-03-25T05:40:37;9.30;84.10
59505;DHT22;45321;53.200;5.814;2023-03-25T05:43:02;9.30;84.10
59505;DHT22;45321;53.200;5.814;2023-03-25T05:45:28;9.30;84.10
59505;DHT22;45321;53.200;5.814;2023-03-25T05:47:54;9.30;84.10
59505;DHT22;45321;53.200;5.814;2023-03-25T05:50:21;9.30;84.00
59505;DHT22;45321;53.200;5.814;2023-03-25T05:52:47;9.30;84.00
59505;DHT22;45321;53.200;5.814;2023-03-25T05:55:18;9.30;83.90
59505;DHT22;45321;53.200;5.814;2023-03-25T05:57:44;9.30;83.80
59505;DHT22;45321;53.200;5.814;2023-03-25T06:00:11;9.30;83.70
59505;DHT22;45321;53.200;5.814;2023-03-25T06:02:38;9.30;83.60
59505;DHT22;45321;53.200;5.814;2023-03-25T06:05:10;9.30;83.50
59505;DHT22;45321;53.200;5.814;2023-03-25T06:07:39;9.40;83.40
59505;DHT22;45321;53.200;5.814;2023-03-25T06:10:09;9.40;83.20
59505;DHT22;45321;53.200;5.814;2023-03-25T06:12:35;9.40;83.20
59505;DHT22;45321;53.200;5.814;2023-03-25T06:15:14;9.40;82.90
59505;DHT22;45321;53.200;5.814;2023-03-25T06:17:43;9.40;82.90
59505;DHT22;45321;53.200;5.814;2023-03-25T06:20:11;9.40;82.80
59505;DHT22;45321;53.200;5.814;2023-03-25T06:22:45;9.40;82.70
59505;DHT22;45321;53.200;5.814;2023-03-25T06:25:12;9.40;82.70
59505;DHT22;45321;53.200;5.814;2023-03-25T06:27:39;9.40;82.60
59505;DHT22;45321;53.200;5.814;2023-03-25T06:30:07;9.40;82.60
59505;DHT22;45321;53.200;5.814;2023-03-25T06:32:34;9.40;82.80
59505;DHT22;45321;53.200;5.814;2023-03-25T06:35:00;9.40;82.90
59505;DHT22;45321;53.200;5.814;2023-03-25T06:37:27;9.40;83.00
59505;DHT22;45321;53.200;5.814;2023-03-25T06:39:52;9.40;82.70
59505;DHT22;45321;53.200;5.814;2023-03-25T06:42:27;9.50;82.70
59505;DHT22;45321;53.200;5.814;2023-03-25T06:44:54;9.40;82.90
59505;DHT22;45321;53.200;5.814;2023-03-25T06:47:20;9.40;83.10
59505;DHT22;45321;53.200;5.814;2023-03-25T06:49:46;9.40;84.40
59505;DHT22;45321;53.200;5.814;2023-03-25T06:52:12;9.30;85.40
59505;DHT22;45321;53.200;5.814;2023-03-25T06:54:38;9.20;85.30
59505;DHT22;45321;53.200;5.814;2023-03-25T06:57:04;9.20;85.60
59505;DHT22;45321;53.200;5.814;2023-03-25T06:59:31;9.20;85.50
59505;DHT22;45321;53.200;5.814;2023-03-25T07:01:57;9.20;85.50
59505;DHT22;45321;53.200;5.814;2023-03-25T07:04:23;9.20;85.50
59505;DHT22;45321;53.200;5.814;2023-03-25T07:06:49;9.30;85.40
59505;DHT22;45321;53.200;5.814;2023-03-25T07:09:14;9.20;85.10
59505;DHT22;45321;53.200;5.814;2023-03-25T07:11:40;9.30;85.10
59505;DHT22;45321;53.200;5.814;2023-03-25T07:14:06;9.30;85.00
59505;DHT22;45321;53.200;5.814;2023-03-25T07:16:32;9.30;85.00
59505;DHT22;45321;53.200;5.814;2023-03-25T07:18:58;9.30;84.80
59505;DHT22;45321;53.200;5.814;2023-03-25T07:21:24;9.30;85.30
59505;DHT22;45321;53.200;5.814;2023-03-25T07:23:50;9.10;86.50
59505;DHT22;45321;53.200;5.814;2023-03-25T07:26:16;8.80;87.10
59505;DHT22;45321;53.200;5.814;2023-03-25T07:28:42;8.60;87.80
59505;DHT22;45321;53.200;5.814;2023-03-25T07:31:10;8.40;88.60
59505;DHT22;45321;53.200;5.814;2023-03-25T07:33:37;8.30;89.20
59505;DHT22;45321;53.200;5.814;2023-03-25T07:36:04;8.30;89.70
59505;DHT22;45321;53.200;5.814;2023-03-25T07:38:30;8.30;89.90
59505;DHT22;45321;53.200;5.814;2023-03-25T07:40:56;8.30;90.10
59505;DHT22;45321;53.200;5.814;2023-03-25T07:43:22;8.30;90.10
59505;DHT22;45321;53.200;5.814;2023-03-25T07:45:48;8.30;90.40
59505;DHT22;45321;53.200;5.814;2023-03-25T07:48:14;8.30;90.50
59505;DHT22;45321;53.200;5.814;2023-03-25T07:50:43;8.30;90.50
59505;DHT22;45321;53.200;5.814;2023-03-25T07:53:10;8.30;90.50
59505;DHT22;45321;53.200;5.814;2023-03-25T07:55:36;8.40;90.50
59505;DHT22;45321;53.200;5.814;2023-03-25T07:58:02;8.30;90.70
59505;DHT22;45321;53.200;5.814;2023-03-25T08:00:29;8.40;90.80
59505;DHT22;45321;53.200;5.814;2023-03-25T08:02:55;8.50;90.70
59505;DHT22;45321;53.200;5.814;2023-03-25T08:05:21;8.50;90.70
59505;DHT22;45321;53.200;5.814;2023-03-25T08:07:48;8.60;90.50
59505;DHT22;45321;53.200;5.814;2023-03-25T08:10:14;8.60;90.30
59505;DHT22;45321;53.200;5.814;2023-03-25T08:12:41;8.60;90.30
59505;DHT22;45321;53.200;5.814;2023-03-25T08:15:08;8.70;90.10
59505;DHT22;45321;53.200;5.814;2023-03-25T08:17:33;8.80;90.00
59505;DHT22;45321;53.200;5.814;2023-03-25T08:19:59;8.80;90.00
59505;DHT22;45321;53.200;5.814;2023-03-25T08:22:28;8.80;89.80
59505;DHT22;45321;53.200;5.814;2023-03-25T08:24:54;8.80;89.90
59505;DHT22;45321;53.200;5.814;2023-03-25T08:27:20;8.90;89.70
59505;DHT22;45321;53.200;5.814;2023-03-25T08:29:46;9.00;89.60
59505;DHT22;45321;53.200;5.814;2023-03-25T08:32:19;9.30;89.50
59505;DHT22;45321;53.200;5.814;2023-03-25T08:34:45;9.30;89.10
59505;DHT22;45321;53.200;5.814;2023-03-25T08:37:11;9.40;88.40
59505;DHT22;45321;53.200;5.814;2023-03-25T08:39:38;9.40;87.70
59505;DHT22;45321;53.200;5.814;2023-03-25T08:42:08;9.40;87.60
59505;DHT22;45321;53.200;5.814;2023-03-25T08:44:34;9.50;87.30
59505;DHT22;45321;53.200;5.814;2023-03-25T08:47:00;9.50;86.70
59505;DHT22;45321;53.200;5.814;2023-03-25T08:49:25;9.60;86.70
59505;DHT22;45321;53.200;5.814;2023-03-25T08:51:51;9.70;86.80
59505;DHT22;45321;53.200;5.814;2023-03-25T08:54:17;9.80;86.30
59505;DHT22;45321;53.200;5.814;2023-03-25T08:56:43;9.80;85.50
59505;DHT22;45321;53.200;5.814;2023-03-25T08:59:09;9.90;85.60
59505;DHT22;45321;53.200;5.814;2023-03-25T09:01:37;9.90;85.30
59505;DHT22;45321;53.200;5.814;2023-03-25T09:04:03;9.90;84.40
59505;DHT22;45321;53.200;5.814;2023-03-25T09:06:28;10.00;84.80
59505;DHT22;45321;53.200;5.814;2023-03-25T09:08:54;10.00;84.90
59505;DHT22;45321;53.200;5.814;2023-03-25T09:11:20;10.00;84.60
59505;DHT22;45321;53.200;5.814;2023-03-25T09:13:46;10.00;84.10
59505;DHT22;45321;53.200;5.814;2023-03-25T09:16:12;10.00;83.80
59505;DHT22;45321;53.200;5.814;2023-03-25T09:18:38;9.90;83.00
59505;DHT22;45321;53.200;5.814;2023-03-25T09:21:04;9.90;83.20
59505;DHT22;45321;53.200;5.814;2023-03-25T09:23:30;9.90;83.10
59505;DHT22;45321;53.200;5.814;2023-03-25T09:26:00;9.90;82.80
59505;DHT22;45321;53.200;5.814;2023-03-25T09:28:27;9.90;82.60
59505;DHT22;45321;53.200;5.814;2023-03-25T09:30:53;9.90;82.60
59505;DHT22;45321;53.200;5.814;2023-03-25T09:33:19;10.00;82.50
59505;DHT22;45321;53.200;5.814;2023-03-25T09:35:45;10.00;82.30
59505;DHT22;45321;53.200;5.814;2023-03-25T09:38:12;10.00;82.40
59505;DHT22;45321;53.200;5.814;2023-03-25T09:40:41;10.10;82.00
59505;DHT22;45321;53.200;5.814;2023-03-25T09:45:48;10.20;82.20
59505;DHT22;45321;53.200;5.814;2023-03-25T09:51:19;10.30;81.80
59505;DHT22;45321;53.200;5.814;2023-03-25T09:54:16;10.30;81.40
59505;DHT22;45321;53.200;5.814;2023-03-25T09:56:45;10.30;81.10
59505;DHT22;45321;53.200;5.814;2023-03-25T09:59:13;10.30;80.80
59505;DHT22;45321;53.200;5.814;2023-03-25T10:01:49;10.30;80.90
59505;DHT22;45321;53.200;5.814;2023-03-25T10:09:58;10.50;80.10
59505;DHT22;45321;53.200;5.814;2023-03-25T10:12:49;10.60;80.30
59505;DHT22;45321;53.200;5.814;2023-03-25T10:26:29;10.90;79.00
59505;DHT22;45321;53.200;5.814;2023-03-25T10:29:00;11.10;79.10
59505;DHT22;45321;53.200;5.814;2023-03-25T10:31:31;11.30;78.40
59505;DHT22;45321;53.200;5.814;2023-03-25T10:34:04;11.20;77.20
59505;DHT22;45321;53.200;5.814;2023-03-25T10:36:34;11.30;78.00
59505;DHT22;45321;53.200;5.814;2023-03-25T10:39:01;11.30;77.20
59505;DHT22;45321;53.200;5.814;2023-03-25T10:41:37;11.40;77.60
59505;DHT22;45321;53.200;5.814;2023-03-25T10:44:10;11.60;77.10
59505;DHT22;45321;53.200;5.814;2023-03-25T10:47:09;11.80;75.20
59505;DHT22;45321;53.200;5.814;2023-03-25T10:49:39;11.70;74.90
59505;DHT22;45321;53.200;5.814;2023-03-25T10:52:06;11.60;75.20
59505;DHT22;45321;53.200;5.814;2023-03-25T10:54:36;11.60;75.70
59505;DHT22;45321;53.200;5.814;2023-03-25T10:57:05;11.60;75.90
59505;DHT22;45321;53.200;5.814;2023-03-25T10:59:38;11.80;75.90
59505;DHT22;45321;53.200;5.814;2023-03-25T11:02:18;11.90;75.40
59505;DHT22;45321;53.200;5.814;2023-03-25T11:04:47;11.90;75.20
59505;DHT22;45321;53.200;5.814;2023-03-25T11:07:31;11.90;75.10
59505;DHT22;45321;53.200;5.814;2023-03-25T11:10:18;11.90;75.20
59505;DHT22;45321;53.200;5.814;2023-03-25T11:12:45;12.00;75.50
59505;DHT22;45321;53.200;5.814;2023-03-25T11:15:22;12.10;75.10
59505;DHT22;45321;53.200;5.814;2023-03-25T11:18:04;12.10;74.60
59505;DHT22;45321;53.200;5.814;2023-03-25T11:20:45;12.00;74.60
59505;DHT22;45321;53.200;5.814;2023-03-25T11:23:25;12.00;75.30
59505;DHT22;45321;53.200;5.814;2023-03-25T11:25:53;12.00;74.20
59505;DHT22;45321;53.200;5.814;2023-03-25T11:28:30;12.10;74.60
59505;DHT22;45321;53.200;5.814;2023-03-25T11:33:39;12.00;74.00
59505;DHT22;45321;53.200;5.814;2023-03-25T11:38:46;12.00;74.60
59505;DHT22;45321;53.200;5.814;2023-03-25T11:41:15;12.20;74.50
59505;DHT22;45321;53.200;5.814;2023-03-25T11:43:41;12.20;73.60
59505;DHT22;45321;53.200;5.814;2023-03-25T11:46:17;12.20;73.20
59505;DHT22;45321;53.200;5.814;2023-03-25T11:48:45;12.20;73.10
59505;DHT22;45321;53.200;5.814;2023-03-25T11:51:19;12.00;73.20
59505;DHT22;45321;53.200;5.814;2023-03-25T11:53:48;11.90;73.30
59505;DHT22;45321;53.200;5.814;2023-03-25T11:56:19;11.80;73.30
59505;DHT22;45321;53.200;5.814;2023-03-25T11:58:48;11.80;74.20
59505;DHT22;45321;53.200;5.814;2023-03-25T12:01:28;11.90;74.10
59505;DHT22;45321;53.200;5.814;2023-03-25T12:06:52;12.00;74.40
59505;DHT22;45321;53.200;5.814;2023-03-25T12:09:19;12.00;73.40
59505;DHT22;45321;53.200;5.814;2023-03-25T12:12:22;12.00;73.30
59505;DHT22;45321;53.200;5.814;2023-03-25T12:15:35;11.90;73.40
59505;DHT22;45321;53.200;5.814;2023-03-25T12:18:06;11.80;73.90
59505;DHT22;45321;53.200;5.814;2023-03-25T12:23:41;11.80;74.20
59505;DHT22;45321;53.200;5.814;2023-03-25T12:29:18;11.60;74.70
59505;DHT22;45321;53.200;5.814;2023-03-25T12:41:20;11.10;77.30
59505;DHT22;45321;53.200;5.814;2023-03-25T12:52:08;10.40;83.50
59505;DHT22;45321;53.200;5.814;2023-03-25T13:05:59;10.10;86.20
59505;DHT22;45321;53.200;5.814;2023-03-25T13:08:35;9.80;86.30
59505;DHT22;45321;53.200;5.814;2023-03-25T13:11:08;9.70;87.00
59505;DHT22;45321;53.200;5.814;2023-03-25T13:13:37;9.80;87.50
59505;DHT22;45321;53.200;5.814;2023-03-25T13:16:19;9.80;87.80
59505;DHT22;45321;53.200;5.814;2023-03-25T13:19:02;10.00;87.90
59505;DHT22;45321;53.200;5.814;2023-03-25T13:21:35;10.10;86.60
59505;DHT22;45321;53.200;5.814;2023-03-25T13:24:11;10.00;86.20
59505;DHT22;45321;53.200;5.814;2023-03-25T13:26:41;9.80;86.80
59505;DHT22;45321;53.200;5.814;2023-03-25T13:32:47;9.50;87.90
59505;DHT22;45321;53.200;5.814;2023-03-25T13:38:00;9.20;88.10
59505;DHT22;45321;53.200;5.814;2023-03-25T13:40:43;9.20;88.40
59505;DHT22;45321;53.200;5.814;2023-03-25T13:43:31;9.20;88.30
59505;DHT22;45321;53.200;5.814;2023-03-25T13:48:39;9.40;88.60
59505;DHT22;45321;53.200;5.814;2023-03-25T13:51:06;9.60;88.40
59505;DHT22;45321;53.200;5.814;2023-03-25T13:59:10;9.70;87.80
59505;DHT22;45321;53.200;5.814;2023-03-25T14:04:58;9.70;87.70
59505;DHT22;45321;53.200;5.814;2023-03-25T14:13:04;9.60;87.90
59505;DHT22;45321;53.200;5.814;2023-03-25T14:15:32;9.60;87.90
59505;DHT22;45321;53.200;5.814;2023-03-25T14:18:01;9.50;87.90
59505;DHT22;45321;53.200;5.814;2023-03-25T14:20:35;9.60;88.00
59505;DHT22;45321;53.200;5.814;2023-03-25T14:23:05;9.60;88.10
59505;DHT22;45321;53.200;5.814;2023-03-25T14:25:55;9.60;87.80
59505;DHT22;45321;53.200;5.814;2023-03-25T14:28:42;9.80;87.70
59505;DHT22;45321;53.200;5.814;2023-03-25T14:42:10;10.10;85.80
59505;DHT22;45321;53.200;5.814;2023-03-25T14:44:43;10.20;85.50
59505;DHT22;45321;53.200;5.814;2023-03-25T14:49:53;10.20;84.20
59505;DHT22;45321;53.200;5.814;2023-03-25T14:52:43;10.20;84.10
59505;DHT22;45321;53.200;5.814;2023-03-25T14:55:24;10.30;84.10
59505;DHT22;45321;53.200;5.814;2023-03-25T14:58:00;10.30;83.80
59505;DHT22;45321;53.200;5.814;2023-03-25T15:00:34;10.30;83.70
59505;DHT22;45321;53.200;5.814;2023-03-25T15:03:13;10.30;83.10
59505;DHT22;45321;53.200;5.814;2023-03-25T15:05:42;10.40;82.90
59505;DHT22;45321;53.200;5.814;2023-03-25T15:08:14;10.30;82.80
59505;DHT22;45321;53.200;5.814;2023-03-25T15:10:44;10.30;83.00
59505;DHT22;45321;53.200;5.814;2023-03-25T15:13:27;10.30;83.30
59505;DHT22;45321;53.200;5.814;2023-03-25T15:16:03;10.30;83.00
59505;DHT22;45321;53.200;5.814;2023-03-25T15:26:38;10.30;83.00
59505;DHT22;45321;53.200;5.814;2023-03-25T15:32:58;10.30;83.10
59505;DHT22;45321;53.200;5.814;2023-03-25T15:55:12;10.70;81.70
59505;DHT22;45321;53.200;5.814;2023-03-25T15:57:47;10.60;82.10
59505;DHT22;45321;53.200;5.814;2023-03-25T16:00:25;10.60;82.20
59505;DHT22;45321;53.200;5.814;2023-03-25T16:03:00;10.70;82.20
59505;DHT22;45321;53.200;5.814;2023-03-25T16:05:34;10.70;82.10
59505;DHT22;45321;53.200;5.814;2023-03-25T16:08:09;10.70;82.20
59505;DHT22;45321;53.200;5.814;2023-03-25T16:10:36;10.60;81.90
59505;DHT22;45321;53.200;5.814;2023-03-25T16:13:12;10.50;81.80
59505;DHT22;45321;53.200;5.814;2023-03-25T16:15:41;10.40;82.00
59505;DHT22;45321;53.200;5.814;2023-03-25T16:18:10;10.30;82.20
59505;DHT22;45321;53.200;5.814;2023-03-25T16:20:38;10.30;82.40
59505;DHT22;45321;53.200;5.814;2023-03-25T16:23:05;10.30;82.40
59505;DHT22;45321;53.200;5.814;2023-03-25T16:25:34;10.30;82.50
59505;DHT22;45321;53.200;5.814;2023-03-25T16:28:12;10.30;82.60
59505;DHT22;45321;53.200;5.814;2023-03-25T16:30:41;10.40;82.00
59505;DHT22;45321;53.200;5.814;2023-03-25T16:35:39;10.30;81.80
59505;DHT22;45321;53.200;5.814;2023-03-25T16:38:06;10.30;81.90
59505;DHT22;45321;53.200;5.814;2023-03-25T16:40:37;10.30;81.90
59505;DHT22;45321;53.200;5.814;2023-03-25T16:43:31;10.30;82.00
59505;DHT22;45321;53.200;5.814;2023-03-25T16:45:59;10.30;82.00
59505;DHT22;45321;53.200;5.814;2023-03-25T16:50:52;10.20;82.00
59505;DHT22;45321;53.200;5.814;2023-03-25T16:53:20;10.10;82.10
59505;DHT22;45321;53.200;5.814;2023-03-25T16:55:49;10.10;82.20
59505;DHT22;45321;53.200;5.814;2023-03-25T16:58:24;10.00;82.30
59505;DHT22;45321;53.200;5.814;2023-03-25T17:00:52;10.10;82.50
59505;DHT22;45321;53.200;5.814;2023-03-25T17:03:38;10.00;82.50
59505;DHT22;45321;53.200;5.814;2023-03-25T17:06:09;10.00;82.60
59505;DHT22;45321;53.200;5.814;2023-03-25T17:08:38;10.00;82.80
59505;DHT22;45321;53.200;5.814;2023-03-25T17:11:07;9.90;82.70
59505;DHT22;45321;53.200;5.814;2023-03-25T17:14:06;9.90;82.90
59505;DHT22;45321;53.200;5.814;2023-03-25T17:16:33;9.90;83.00
59505;DHT22;45321;53.200;5.814;2023-03-25T17:19:02;9.90;83.10
59505;DHT22;45321;53.200;5.814;2023-03-25T17:21:31;9.90;83.00
59505;DHT22;45321;53.200;5.814;2023-03-25T17:24:06;9.80;83.00
59505;DHT22;45321;53.200;5.814;2023-03-25T17:27:06;9.80;82.90
59505;DHT22;45321;53.200;5.814;2023-03-25T17:29:49;9.80;83.20
59505;DHT22;45321;53.200;5.814;2023-03-25T17:32:16;9.80;83.30
59505;DHT22;45321;53.200;5.814;2023-03-25T17:34:42;9.80;83.30
59505;DHT22;45321;53.200;5.814;2023-03-25T17:37:11;9.80;83.30
59505;DHT22;45321;53.200;5.814;2023-03-25T17:39:38;9.80;83.30
59505;DHT22;45321;53.200;5.814;2023-03-25T17:42:06;9.80;83.10
59505;DHT22;45321;53.200;5.814;2023-03-25T17:44:38;9.80;82.90
59505;DHT22;45321;53.200;5.814;2023-03-25T17:47:06;9.70;82.90
59505;DHT22;45321;53.200;5.814;2023-03-25T17:49:32;9.70;83.00
59505;DHT22;45321;53.200;5.814;2023-03-25T17:52:01;9.70;83.00
59505;DHT22;45321;53.200;5.814;2023-03-25T17:54:27;9.70;82.90
59505;DHT22;45321;53.200;5.814;2023-03-25T17:56:53;9.70;83.00
59505;DHT22;45321;53.200;5.814;2023-03-25T17:59:21;9.70;82.90
59505;DHT22;45321;53.200;5.814;2023-03-25T18:01:47;9.70;83.00
59505;DHT22;45321;53.200;5.814;2023-03-25T18:04:15;9.60;83.00
59505;DHT22;45321;53.200;5.814;2023-03-25T18:06:41;9.60;83.20
59505;DHT22;45321;53.200;5.814;2023-03-25T18:09:33;9.60;83.30
59505;DHT22;45321;53.200;5.814;2023-03-25T18:11:59;9.60;83.50
59505;DHT22;45321;53.200;5.814;2023-03-25T18:14:25;9.60;83.50
59505;DHT22;45321;53.200;5.814;2023-03-25T18:16:51;9.60;83.60
59505;DHT22;45321;53.200;5.814;2023-03-25T18:19:21;9.60;83.70
59505;DHT22;45321;53.200;5.814;2023-03-25T18:21:47;9.60;83.90
59505;DHT22;45321;53.200;5.814;2023-03-25T18:24:13;9.60;83.90
59505;DHT22;45321;53.200;5.814;2023-03-25T18:26:39;9.50;84.00
59505;DHT22;45321;53.200;5.814;2023-03-25T18:29:19;9.60;84.00
59505;DHT22;45321;53.200;5.814;2023-03-25T18:31:46;9.50;84.10
59505;DHT22;45321;53.200;5.814;2023-03-25T18:34:12;9.50;84.10
59505;DHT22;45321;53.200;5.814;2023-03-25T18:36:39;9.50;84.20
59505;DHT22;45321;53.200;5.814;2023-03-25T18:39:04;9.50;84.20
59505;DHT22;45321;53.200;5.814;2023-03-25T18:41:33;9.50;84.30
59505;DHT22;45321;53.200;5.814;2023-03-25T18:43:59;9.50;84.30
59505;DHT22;45321;53.200;5.814;2023-03-25T18:46:24;9.50;84.40
59505;DHT22;45321;53.200;5.814;2023-03-25T18:48:50;9.50;84.40
59505;DHT22;45321;53.200;5.814;2023-03-25T18:51:16;9.50;84.40
59505;DHT22;45321;53.200;5.814;2023-03-25T18:53:42;9.50;84.30
59505;DHT22;45321;53.200;5.814;2023-03-25T18:56:08;9.50;84.20
59505;DHT22;45321;53.200;5.814;2023-03-25T18:58:34;9.50;84.10